• Join FlightAware (Why Join?)
  • Login
  • US Flag 
09:27PM EDT


 

Airport Tracker/Info


-or-


 

Live Flight TrackerFlight Track Log ✈ CSJ405 ✈ 26-Apr-2013 ✈ KALB - KCDW

Flight Track Log - Related Links

Times and Time Zones

All times are in EDT time to prevent confusion due to time zone crossing. See the CSJ405 flight status page for this flight to view local times or setup timezone preferences in your user account.

Time Position Orientation Groundspeed Altitude Reporting Facility
EDT Latitude Longitude Course Direction KTS MPH feet Rate Location/Type
05:22PM 42.7547 -73.8114 246° West 80 92 1,100  Level Boston Center
05:23PM 42.7439 -73.8453 246° West 112 129 2,200 1,200 Climbing Boston Center
05:24PM 42.7311 -73.8789 243° Southwest 109 125 3,500 1,260 Climbing Boston Center
05:25PM 42.7139 -73.9153 237° Southwest 109 125 4,900 1,380 Climbing Boston Center
05:26PM 42.6844 -73.9369 208° Southwest 116 133 6,500 1,440 Climbing Boston Center
05:27PM 42.6531 -73.9503 197° South 112 129 7,900 720 Climbing Boston Center
05:28PM 42.6172 -73.9750 207° Southwest 151 174 8,000  Climbing Boston Center
05:29PM 42.5794 -73.9964 203° Southwest 175 201 8,000  Level Boston Center
05:30PM 42.5353 -74.0208 202° Southwest 169 194 8,000 -60 Level Boston Center
05:31PM 42.4956 -74.0394 199° South 169 194 7,900  Descending Boston Center
05:32PM 42.4533 -74.0608 200° South 176 203 8,000 60 Climbing Boston Center
05:33PM 42.4136 -74.0853 204° Southwest 170 196 8,100  Climbing Boston Center
05:34PM 42.3736 -74.1067 202° Southwest 165 190 8,100  Level Boston Center
05:35PM 42.3358 -74.1308 205° Southwest 153 176 8,100  Level Boston Center
05:36PM 42.2978 -74.1553 205° Southwest 158 182 8,100  Level Boston Center
05:37PM 42.2536 -74.1819 204° Southwest 158 182 8,100  Level Boston Center
05:38PM 42.2181 -74.2006 201° Southwest 158 182 8,100  Level Boston Center
05:39PM 42.1736 -74.2275 204° Southwest 158 182 8,100  Level Boston Center
05:40PM 42.1400 -74.2572 213° Southwest 158 182 8,100 -60 Level Boston Center
05:41PM 42.0978 -74.2922 212° Southwest 164 189 8,000 -300 Descending Boston Center
05:42PM 42.0575 -74.3219 209° Southwest 170 196 7,500 -540 Descending Boston Center
05:43PM 42.0092 -74.3542 206° Southwest 181 208 7,000 -240 Descending Boston Center
05:44PM 41.9689 -74.3808 206° Southwest 181 208 7,100  Climbing Boston Center
05:45PM 41.9225 -74.4183 211° Southwest 181 208 7,000 -60 Descending Boston Center
05:46PM 41.8825 -74.4478 209° Southwest 181 208 7,000  Level Boston Center
05:47PM 41.8358 -74.4797 207° Southwest 181 208 7,000  Level Boston Center
05:48PM 41.7958 -74.5064 206° Southwest 176 203 7,000  Level Boston Center
05:49PM 41.7494 -74.5353 205° Southwest 176 203 7,000  Level Boston Center
05:50PM 41.6931 -74.5475 189° South 171 197 7,000  Level Boston Center
05:51PM 41.6450 -74.5542 186° South 171 197 7,000 -360 Level Boston Center
05:52PM 41.5928 -74.5608 185° South 179 206 6,300 -540 Descending Boston Center
05:53PM 41.5425 -74.5703 188° South 186 214 6,000 -180 Descending Boston Center
05:54PM 41.4944 -74.5825 191° South 181 208 6,000  Level Boston Center
05:55PM 41.4461 -74.5919 188° South 181 208 6,000  Level Boston Center
05:56PM 41.3961 -74.6014 188° South 181 208 6,000  Level Boston Center
05:59PM 41.2833 -74.6333 192° South 178 205 6,000 -120 Level New York TRACON
06:00PM 41.2500 -74.5833 132° Southeast 178 205 5,700 -660 Descending New York TRACON
06:01PM 41.2000 -74.5500 153° Southeast 193 222 4,700 -900 Descending New York TRACON
06:02PM 41.1667 -74.5167 143° Southeast 191 220 3,900 -600 Descending New York TRACON
06:03PM 41.1167 -74.4833 153° Southeast 188 216 3,500 -420 Descending New York TRACON
06:04PM 41.0667 -74.4333 143° Southeast 184 212 3,100 -420 Descending New York TRACON
06:05PM 41.0333 -74.4000 143° Southeast 182 209 2,700 -300 Descending New York TRACON
06:06PM 40.9833 -74.3667 153° Southeast 176 203 2,500 -300 Descending New York TRACON
06:07PM 40.9500 -74.3500 159° South 178 205 2,200 -360 Descending New York TRACON
06:08PM 40.9000 -74.3500 180° South 148 170 1,800 -480 Descending New York TRACON
06:09PM 40.8667 -74.3333 159° South 121 139 1,300 -540 Descending New York TRACON